Larissa , Thessalia , Greece
39° 38' 00"N, 22° 25' 00"E, Elevation 263 ft.
Χειμερινή Time

Hourly observations for the last 48 hours

Date

Time

Temperature (°C) Humi-
dity
(%)
Wind
(kmph)
Pressure Rain (mm) Sun
(W/m2)
UV ET
(mm)
Air Dew 6 Hour 1 Hr 3 Hr 6 Hr Day
Alt
(in)
Sea
Level
(mb)
Max Min
24 22:00 13.4 3.8 52 E 4 G 8 30.11 1019.8 0.00 0 0.0 4.267
24 21:00 14.7 2.9 20.4 14.7 45 S 4 G 12 30.09 1019.1 0.00 0 0.0 4.216
24 20:00 16.7 3.0 40 S 5 G 16 30.08 1018.5 0.00 13 0.0 4.166
24 19:00 18.1 0.7 31 S 4 G 14 30.07 1018.3 0.00 181 0.0 4.064
24 18:00 18.5 0.1 29 S 7 G 16 30.07 1018.3 0.00 194 0.0 3.886
24 17:00 19.2 0.3 28 ENE 10 G 19 30.07 1018.4 0.00 214 0.0 3.658
24 16:00 20.2 0.6 27 E 8 G 14 30.08 1018.8 0.00 724 0.0 3.302
24 15:00 20.1 -0.0 20.1 12.1 26 E 7 G 14 30.10 1019.5 0.00 841 0.0 2.845
24 14:00 18.9 0.9 30 E 9 G 17 30.12 1020.0 0.00 893 0.0 2.362
24 13:00 18.7 1.2 31 S 4 G 16 30.14 1020.6 0.00 907 0.0 1.880
24 12:00 17.2 0.3 32 SE 3 G 8 30.14 1020.8 0.00 850 0.0 1.422
24 11:00 16.2 0.3 34 S 3 G 9 30.15 1021.0 0.00 736 0.0 1.016
24 10:00 14.9 1.8 41 S 5 G 16 30.14 1020.7 0.00 582 0.0 0.686
24 09:00 12.1 3.3 12.3 10.4 55 E 3 G 8 30.14 1020.6 0.00 398 0.0 0.457
24 08:00 10.8 2.8 58 NNE 5 G 8 30.12 1019.9 0.00 169 0.0 0.330
24 07:00 10.6 1.2 52 S 3 G 4 30.10 1019.2 0.00 22 0.0 0.279
24 06:00 10.7 2.0 55 S 3 G 8 30.08 1018.7 0.00 0 0.0 0.254
24 05:00 11.4 4.0 60 S 0 G 3 30.07 1018.2 0.00 0 0.0 0.203
24 04:00 11.8 4.3 60 Calm 30.05 1017.7 0.00 0 0.0 0.178
24 03:00 12.3 4.6 18.2 12.3 59 SSW 2 G 6 30.04 1017.3 0.00 0 0.0 0.102
24 02:00 13.2 5.3 59 S 5 G 8 30.03 1017.0 0.00 0 0.0 0.051
24 01:00 14.2 5.3 55 S 2 G 6 30.01 1016.5 0.00 0 0.0 0.000
24 00:00 15.6 2.7 42 W 0 G 3 30.00 1016.0 0.00 0 0.0 4.115
23 23:00 15.3 2.8 43 S 1 G 4 29.98 1015.3 0.00 0 0.0 4.064
23 22:00 17.5 2.3 36 S 8 G 17 29.94 1013.8 0.00 0 0.0 3.962
23 21:00 18.2 2.9 22.2 17.9 36 S 4 G 11 29.91 1012.8 0.00 0 0.0 3.912
23 20:00 19.3 1.8 31 SSE 2 G 14 29.89 1012.1 0.00 19 0.0 3.835
23 19:00 21.2 1.9 28 ESE 2 G 9 29.87 1011.5 0.00 122 0.0 3.708
23 18:00 22.0 1.6 26 E 9 G 14 29.86 1011.3 0.00 401 0.0 3.404
23 17:00 21.6 0.7 25 S 3 G 11 29.88 1011.9 0.00 571 0.0 3.023
23 16:00 21.2 0.4 25 S 4 G 12 29.90 1012.4 0.00 732 0.0 2.591
23 15:00 20.5 0.3 20.5 9.4 26 E 6 G 14 29.92 1013.3 0.00 841 0.0 2.134
23 14:00 19.5 0.0 27 W 5 G 11 29.94 1013.9 0.00 905 0.0 1.651
23 13:00 18.2 -0.6 28 SSW 2 G 9 29.95 1014.4 0.00 907 0.0 1.219
23 12:00 16.4 -0.3 32 ESE 3 G 8 29.97 1014.8 0.00 846 0.0 0.838
23 11:00 15.0 -0.7 34 S 2 G 12 29.97 1015.0 0.00 730 0.0 0.533
23 10:00 12.3 2.2 50 S 3 G 9 29.97 1015.0 0.00 574 0.0 0.330
23 09:00 9.4 2.7 9.4 4.9 63 S 3 G 6 29.97 1015.0 0.00 396 0.0 0.330
23 08:00 7.3 2.2 70 Calm 29.97 1014.8 0.00 158 0.0 0.203
23 07:00 6.2 1.9 74 Calm 29.94 1014.1 0.00 19 0.0 0.178
23 06:00 6.4 2.0 73 S 1 G 6 29.94 1013.9 0.00 0 0.0 0.178
23 05:00 5.6 1.3 74 S 1 G 6 29.94 1014.0 0.00 0 0.0 0.152
23 04:00 7.3 1.3 66 S 0 G 3 29.94 1013.8 0.00 0 0.0 0.127
23 03:00 7.1 1.2 11.4 7.0 66 S 0 G 3 29.94 1013.9 0.00 0 0.0 0.102
23 02:00 9.5 0.9 55 S 2 G 6 29.95 1014.3 0.00 0 0.0 0.076
23 01:00 9.7 0.0 51 S 2 G 3 29.95 1014.4 0.00 0 0.0 0.025
23 00:00 9.5 1.2 56 S 3 G 6 29.95 1014.4 0.00 0 0.0 0.000
22 23:00 10.6 1.4 53 S 1 G 4 29.95 1014.3 0.00 0 0.0 4.166

Data generated by WxSolution Version 1.8.4.2, Build 2009.03.29.